Time;durP1;ratioP1;P1;durP2;ratioP2;P2;SDS_P1;SDS_P2;PMS_P1;PMS_P2;Temp;Humidity;BMP_temperature;BMP_pressure;BME280_temperature;BME280_humidity;BME280_pressure;Samples;Min_cycle;Max_cycle;Signal;HPM_P1;HPM_P2
2021/12/19 00:01:58;;;;;;;18.30;14.40;;;4.00;99.90;;;;;;4949481;29;20381;-73
2021/12/19 00:04:37;;;;;;;21.50;15.70;;;3.90;99.90;;;;;;4937836;29;20059;-73
2021/12/19 00:09:48;;;;;;;16.75;15.10;;;3.90;99.90;;;;;;4937731;29;20038;-74
2021/12/19 00:12:14;;;;;;;16.98;15.35;;;3.90;99.90;;;;;;4948329;29;20471;-73
2021/12/19 00:14:41;;;;;;;19.30;17.27;;;3.90;99.90;;;;;;4937518;29;20038;-73
2021/12/19 00:17:07;;;;;;;19.95;17.35;;;3.90;99.90;;;;;;4940130;29;20031;-73
2021/12/19 00:19:33;;;;;;;24.33;18.42;;;3.80;99.90;;;;;;4940021;29;20043;-73
2021/12/19 00:21:59;;;;;;;25.77;15.65;;;3.90;99.90;;;;;;4937723;29;20040;-73
2021/12/19 00:24:26;;;;;;;16.73;15.20;;;3.90;99.90;;;;;;4937363;29;20039;-76
2021/12/19 00:26:52;;;;;;;17.63;14.27;;;3.90;99.90;;;;;;4936889;29;20036;-73
2021/12/19 00:29:18;;;;;;;18.90;15.38;;;3.90;99.90;;;;;;4936249;29;20047;-73
2021/12/19 00:31:46;;;;;;;18.42;16.58;;;4.00;99.90;;;;;;4937073;29;20465;-73
2021/12/19 00:34:13;;;;;;;17.45;15.57;;;3.90;99.90;;;;;;4937530;29;20469;-73
2021/12/19 00:36:41;;;;;;;21.05;16.35;;;3.90;99.90;;;;;;4937206;29;20032;-73
2021/12/19 00:39:09;;;;;;;18.27;16.48;;;3.90;99.90;;;;;;4937143;29;20027;-72
2021/12/19 00:41:39;;;;;;;17.25;15.55;;;3.90;99.90;;;;;;4936852;29;20036;-74
2021/12/19 00:44:14;;;;;;;15.07;13.13;;;3.90;99.90;;;;;;4937395;29;20501;-74
2021/12/19 00:46:49;;;;;;;16.02;14.18;;;3.90;99.90;;;;;;4936847;29;20035;-74
2021/12/19 00:49:17;;;;;;;17.88;14.75;;;3.80;99.90;;;;;;4916901;29;20059;-72
2021/12/19 00:51:44;;;;;;;13.50;12.32;;;3.80;99.90;;;;;;4917365;29;20046;-74
2021/12/19 00:54:10;;;;;;;17.98;14.35;;;3.80;99.90;;;;;;4918193;29;20028;-74
2021/12/19 00:56:42;;;;;;;17.15;12.57;;;3.80;99.90;;;;;;4917290;29;20040;-75
2021/12/19 00:59:09;;;;;;;15.30;13.73;;;3.80;99.90;;;;;;4917983;29;20398;-74
2021/12/19 01:01:36;;;;;;;18.08;14.20;;;3.80;99.90;;;;;;4917471;29;20032;-74
2021/12/19 01:04:06;;;;;;;15.13;13.57;;;3.80;99.90;;;;;;4917561;29;20103;-74
2021/12/19 01:06:32;;;;;;;15.23;13.57;;;3.80;99.90;;;;;;4917653;29;20032;-74
2021/12/19 01:08:58;;;;;;;20.73;14.23;;;3.80;99.90;;;;;;4918150;29;20039;-75
2021/12/19 01:11:25;;;;;;;15.98;13.27;;;3.80;99.90;;;;;;4917036;29;20036;-74
2021/12/19 01:13:51;;;;;;;16.83;15.18;;;3.80;99.90;;;;;;4917443;29;20152;-73
2021/12/19 01:16:19;;;;;;;24.65;15.77;;;3.80;99.90;;;;;;4917130;29;20484;-72
2021/12/19 01:18:45;;;;;;;16.17;14.63;;;3.80;99.90;;;;;;4917141;29;20040;-74
2021/12/19 01:21:12;;;;;;;24.77;17.63;;;3.80;99.90;;;;;;4916634;29;20051;-72
2021/12/19 01:23:38;;;;;;;17.90;15.02;;;3.80;99.90;;;;;;4916843;29;20043;-73
2021/12/19 01:26:04;;;;;;;17.30;15.00;;;3.80;99.90;;;;;;4910594;29;20059;-72
2021/12/19 01:28:30;;;;;;;19.98;15.25;;;3.80;99.90;;;;;;4917590;29;20039;-73
2021/12/19 01:30:57;;;;;;;18.92;16.90;;;3.80;99.90;;;;;;4917224;29;20115;-75
2021/12/19 01:33:23;;;;;;;21.33;17.83;;;3.80;99.90;;;;;;4917132;29;20261;-73
2021/12/19 01:35:50;;;;;;;18.50;16.63;;;3.80;99.90;;;;;;4916892;29;20032;-73
2021/12/19 01:38:16;;;;;;;19.98;17.15;;;3.80;99.90;;;;;;4917413;29;20032;-73
2021/12/19 01:40:42;;;;;;;19.77;16.92;;;3.80;99.90;;;;;;4916975;29;20040;-73
2021/12/19 01:43:08;;;;;;;23.48;16.58;;;3.70;99.90;;;;;;4917141;29;20032;-73
2021/12/19 01:45:38;;;;;;;20.42;17.08;;;3.70;99.90;;;;;;4915777;29;20040;-73
2021/12/19 01:48:08;;;;;;;18.75;15.77;;;3.70;99.90;;;;;;4926272;29;20024;-73
2021/12/19 01:50:35;;;;;;;23.17;15.93;;;3.70;99.90;;;;;;4934521;29;20508;-72
2021/12/19 01:53:04;;;;;;;15.95;13.98;;;3.70;99.90;;;;;;4935845;29;20032;-73
2021/12/19 01:55:31;;;;;;;22.23;15.43;;;3.80;99.90;;;;;;4935036;29;20038;-73
2021/12/19 01:57:57;;;;;;;15.55;13.95;;;3.70;99.90;;;;;;4935928;29;20123;-73
2021/12/19 02:00:35;;;;;;;20.25;13.52;;;3.70;99.90;;;;;;4935692;29;20052;-72
2021/12/19 02:03:02;;;;;;;22.02;15.52;;;3.70;99.90;;;;;;4935904;29;20031;-72
2021/12/19 02:05:28;;;;;;;22.08;16.85;;;3.80;99.90;;;;;;4935253;29;20043;-72
2021/12/19 02:07:56;;;;;;;24.70;17.45;;;3.80;99.90;;;;;;4935303;29;20051;-72
2021/12/19 02:10:30;;;;;;;26.63;19.10;;;3.80;99.90;;;;;;4936025;29;20441;-73
2021/12/19 02:12:58;;;;;;;21.48;19.17;;;3.80;99.90;;;;;;4918402;29;20035;-73
2021/12/19 02:15:26;;;;;;;23.90;21.30;;;3.80;99.90;;;;;;4922608;29;20039;-73
2021/12/19 02:17:57;;;;;;;23.02;20.45;;;3.70;99.90;;;;;;4940799;29;20035;-72
2021/12/19 02:20:26;;;;;;;22.70;20.05;;;3.80;99.90;;;;;;4944952;29;20036;-73
2021/12/19 02:22:52;;;;;;;24.58;21.33;;;3.80;99.90;;;;;;4935311;29;20042;-74
2021/12/19 02:25:18;;;;;;;22.88;20.42;;;3.80;99.90;;;;;;4935793;29;20047;-74
2021/12/19 02:27:45;;;;;;;26.60;20.80;;;3.80;99.90;;;;;;4948499;29;20473;-74
2021/12/19 02:30:12;;;;;;;29.25;23.33;;;3.80;99.90;;;;;;4938640;29;20453;-74
2021/12/19 02:32:40;;;;;;;26.55;23.85;;;3.80;99.90;;;;;;4934994;29;20044;-75
2021/12/19 02:35:12;;;;;;;29.50;24.02;;;3.80;99.90;;;;;;4935683;29;20043;-74
2021/12/19 02:48:27;;;;;;;33.53;25.95;;;3.80;99.90;;;;;;4926103;29;20043;-74
2021/12/19 02:50:54;;;;;;;31.85;25.63;;;3.80;99.90;;;;;;4944247;29;20374;-74
2021/12/19 02:53:31;;;;;;;32.20;26.10;;;3.80;99.90;;;;;;4935210;29;20036;-74
2021/12/19 02:56:01;;;;;;;32.50;24.10;;;3.80;99.90;;;;;;4935546;29;20031;-74
2021/12/19 02:58:31;;;;;;;36.00;25.85;;;3.80;99.90;;;;;;4939027;29;20035;-74
2021/12/19 03:01:00;;;;;;;34.50;26.75;;;3.80;99.90;;;;;;4939234;29;20047;-76
2021/12/19 03:03:26;;;;;;;28.02;24.63;;;3.80;99.90;;;;;;4954195;29;20036;-74
2021/12/19 03:05:53;;;;;;;33.40;25.48;;;3.80;99.90;;;;;;4938546;29;20035;-74
2021/12/19 03:08:19;;;;;;;29.60;25.75;;;3.80;99.90;;;;;;4938724;29;20413;-72
2021/12/19 03:18:50;;;;;;;39.92;25.75;;;3.80;99.90;;;;;;4935708;29;20044;-74
2021/12/19 03:21:18;;;;;;;28.70;25.13;;;3.80;99.90;;;;;;4938225;29;20055;-74
2021/12/19 03:23:44;;;;;;;37.45;27.27;;;3.80;99.90;;;;;;4938551;29;20046;-74
2021/12/19 03:26:10;;;;;;;30.60;27.10;;;3.80;99.90;;;;;;4938549;29;20027;-74
2021/12/19 03:28:37;;;;;;;36.47;26.50;;;3.80;99.90;;;;;;4938464;29;20059;-74
2021/12/19 03:31:04;;;;;;;32.92;27.17;;;3.90;99.90;;;;;;4938745;29;20498;-72
2021/12/19 03:33:31;;;;;;;34.42;28.25;;;3.90;99.90;;;;;;4938411;29;20039;-76
2021/12/19 03:35:58;;;;;;;36.80;28.38;;;3.90;99.90;;;;;;4935983;29;20039;-74
2021/12/19 03:38:25;;;;;;;33.30;27.83;;;3.90;99.90;;;;;;4922209;29;20054;-74
2021/12/19 03:41:04;;;;;;;36.90;26.83;;;3.90;99.90;;;;;;4937449;29;20051;-74
2021/12/19 03:43:31;;;;;;;32.47;27.25;;;3.90;99.90;;;;;;4938439;29;20039;-74
2021/12/19 03:45:57;;;;;;;27.70;24.80;;;3.90;99.90;;;;;;4937731;29;20491;-75
2021/12/19 03:48:23;;;;;;;30.17;26.70;;;3.90;99.90;;;;;;4937953;29;20047;-74
2021/12/19 03:50:50;;;;;;;31.42;26.65;;;3.90;99.90;;;;;;4937426;29;20357;-74
2021/12/19 03:53:19;;;;;;;37.75;27.25;;;3.90;99.90;;;;;;4938980;29;20036;-74
2021/12/19 03:55:45;;;;;;;31.33;26.85;;;3.90;99.90;;;;;;4956714;29;20042;-74
2021/12/19 03:58:12;;;;;;;34.05;27.35;;;3.90;99.90;;;;;;4939485;29;20026;-73
2021/12/19 04:00:41;;;;;;;33.92;28.05;;;4.00;99.90;;;;;;4936963;29;20359;-73
2021/12/19 04:03:10;;;;;;;36.25;27.27;;;4.00;99.90;;;;;;4937694;29;20046;-74
2021/12/19 04:05:42;;;;;;;30.38;26.63;;;4.00;99.90;;;;;;4937215;29;20055;-74
2021/12/19 04:08:08;;;;;;;33.30;26.65;;;4.00;99.90;;;;;;4937964;29;20032;-74
2021/12/19 04:10:34;;;;;;;33.30;27.35;;;4.00;99.90;;;;;;4937449;29;20043;-74
2021/12/19 04:13:02;;;;;;;35.75;26.65;;;4.00;99.90;;;;;;4937674;29;20031;-73
2021/12/19 04:15:28;;;;;;;40.00;28.65;;;4.00;99.90;;;;;;4938066;29;20032;-74
2021/12/19 04:17:54;;;;;;;40.28;28.45;;;4.00;99.90;;;;;;4937029;29;20035;-74
2021/12/19 04:20:21;;;;;;;39.45;31.05;;;4.10;99.90;;;;;;4937535;29;20047;-74
2021/12/19 04:22:50;;;;;;;33.53;29.48;;;4.00;99.90;;;;;;4937669;29;20027;-73
2021/12/19 04:25:17;;;;;;;32.05;28.52;;;4.10;99.90;;;;;;4937757;29;20035;-74
2021/12/19 04:27:44;;;;;;;35.42;29.05;;;4.10;99.90;;;;;;4936807;29;20038;-74
2021/12/19 04:30:13;;;;;;;40.90;30.05;;;4.10;99.90;;;;;;4920430;29;20038;-73
2021/12/19 04:32:44;;;;;;;34.58;29.02;;;4.10;99.90;;;;;;4936685;29;20040;-74
2021/12/19 04:35:11;;;;;;;45.58;30.40;;;4.10;99.90;;;;;;4938241;29;20031;-74
2021/12/19 04:40:30;;;;;;;36.63;29.20;;;4.20;99.90;;;;;;4936929;29;20470;-74
2021/12/19 04:44:01;;;;;;;41.38;29.85;;;4.20;99.90;;;;;;4937223;29;20027;-74
2021/12/19 05:05:15;;;;;;;28.52;22.63;;;4.30;99.90;;;;;;4936779;29;20507;-75
2021/12/19 05:15:45;;;;;;;23.73;21.13;;;4.30;99.90;;;;;;4935841;29;20051;-74
2021/12/19 05:18:11;;;;;;;18.67;16.10;;;4.30;99.90;;;;;;4937006;29;20032;-75
2021/12/19 05:20:40;;;;;;;17.02;15.00;;;4.30;99.90;;;;;;4948091;28;20408;-74
2021/12/19 05:23:23;;;;;;;15.63;13.57;;;4.40;99.90;;;;;;4944655;29;20064;-74
2021/12/19 05:25:49;;;;;;;19.17;15.95;;;4.30;99.90;;;;;;4937439;29;20027;-73
2021/12/19 05:28:15;;;;;;;20.45;15.75;;;4.40;99.90;;;;;;4919213;29;20040;-74
2021/12/19 05:30:41;;;;;;;15.00;13.02;;;4.40;99.90;;;;;;4936359;29;20039;-74
2021/12/19 05:33:07;;;;;;;15.02;13.70;;;4.40;99.90;;;;;;4936305;29;20591;-74
2021/12/19 05:46:36;;;;;;;15.43;13.63;;;4.40;99.90;;;;;;4936435;29;20054;-74
2021/12/19 05:49:04;;;;;;;17.30;15.68;;;4.40;99.90;;;;;;4953221;29;20043;-74
2021/12/19 05:51:30;;;;;;;14.98;13.45;;;4.40;99.90;;;;;;4935793;29;20040;-74
2021/12/19 05:53:56;;;;;;;15.30;13.77;;;4.40;99.90;;;;;;4935070;29;20044;-73
2021/12/19 05:56:23;;;;;;;14.88;13.45;;;4.40;99.90;;;;;;4935956;29;20040;-73
2021/12/19 05:58:49;;;;;;;15.68;14.20;;;4.50;99.90;;;;;;4934772;29;20047;-74
2021/12/19 06:01:15;;;;;;;15.88;14.07;;;4.50;99.90;;;;;;4920408;29;20123;-73
2021/12/19 06:03:41;;;;;;;15.02;13.63;;;4.50;99.90;;;;;;4917670;29;20048;-73
2021/12/19 06:06:07;;;;;;;16.15;14.43;;;4.40;99.90;;;;;;4934219;29;20055;-73
2021/12/19 06:08:33;;;;;;;16.58;14.98;;;4.50;99.90;;;;;;4935771;29;20036;-75
2021/12/19 06:11:00;;;;;;;15.68;14.13;;;4.50;99.90;;;;;;4938090;29;20058;-74
2021/12/19 06:13:26;;;;;;;16.17;14.68;;;4.50;99.90;;;;;;4937301;29;20393;-74
2021/12/19 06:15:55;;;;;;;15.95;14.48;;;4.50;99.90;;;;;;4936736;29;20027;-76
2021/12/19 06:18:21;;;;;;;14.55;13.05;;;4.50;99.90;;;;;;4939215;29;20039;-74
2021/12/19 06:20:47;;;;;;;15.35;13.90;;;4.50;99.90;;;;;;4936532;29;20116;-74
2021/12/19 06:23:14;;;;;;;10.68;9.68;;;4.50;99.90;;;;;;4935585;29;20038;-74
2021/12/19 06:25:45;;;;;;;11.80;10.70;;;4.60;99.90;;;;;;4935554;29;20032;-73
2021/12/19 06:28:16;;;;;;;14.32;12.93;;;4.60;99.90;;;;;;4935029;29;20043;-73
2021/12/19 06:30:43;;;;;;;;;;;4.60;99.90;;;;;;4935715;29;20036;-73
2021/12/19 06:33:09;;;;;;;14.88;13.23;;;4.60;99.90;;;;;;4936148;29;19914;-73
2021/12/19 06:35:36;;;;;;;13.55;12.48;;;4.60;99.90;;;;;;4946893;29;20032;-73
2021/12/19 06:38:03;;;;;;;14.85;13.40;;;4.60;99.90;;;;;;4945399;29;20043;-73
2021/12/19 06:40:30;;;;;;;16.65;14.98;;;4.60;99.90;;;;;;4942919;29;20232;-73
2021/12/19 06:42:56;;;;;;;14.35;12.85;;;4.60;99.90;;;;;;4934774;29;20055;-75
2021/12/19 06:45:22;;;;;;;15.70;13.25;;;4.60;99.90;;;;;;4953628;29;20038;-73
2021/12/19 06:47:49;;;;;;;13.20;11.95;;;4.60;99.90;;;;;;4944064;29;20028;-73
2021/12/19 06:50:17;;;;;;;13.68;12.32;;;4.70;99.90;;;;;;4935329;29;20047;-73
2021/12/19 06:52:44;;;;;;;15.10;13.70;;;4.70;99.90;;;;;;4935547;29;20035;-72
2021/12/19 06:55:13;;;;;;;14.95;13.63;;;4.70;99.90;;;;;;4935129;29;20031;-73
2021/12/19 06:57:39;;;;;;;15.32;13.95;;;4.70;99.90;;;;;;4935210;29;20037;-73
2021/12/19 07:00:08;;;;;;;23.20;21.08;;;4.60;99.90;;;;;;4925934;29;20043;-73
2021/12/19 07:02:34;;;;;;;16.05;14.35;;;4.60;99.90;;;;;;4940504;29;20043;-78
2021/12/19 07:05:01;;;;;;;16.10;14.60;;;4.70;99.90;;;;;;4935459;29;20040;-73
2021/12/19 07:07:27;;;;;;;21.02;18.85;;;4.60;99.90;;;;;;4935465;29;20028;-75
2021/12/19 07:09:53;;;;;;;16.13;14.70;;;4.60;99.90;;;;;;4935344;29;20043;-73
2021/12/19 07:12:20;;;;;;;17.83;16.08;;;4.70;99.90;;;;;;4935167;29;20032;-72
2021/12/19 07:14:46;;;;;;;15.57;14.18;;;4.70;99.90;;;;;;4942589;29;20024;-73
2021/12/19 07:17:13;;;;;;;15.32;13.77;;;4.60;99.90;;;;;;4935264;29;20461;-73
2021/12/19 07:19:39;;;;;;;15.32;13.93;;;4.60;99.90;;;;;;4934457;29;20047;-73
2021/12/19 07:22:05;;;;;;;17.20;15.55;;;4.60;99.90;;;;;;4935670;29;20420;-72
2021/12/19 07:24:31;;;;;;;18.65;14.98;;;4.60;99.90;;;;;;4918493;29;20465;-73
2021/12/19 07:26:57;;;;;;;16.80;15.30;;;4.60;99.90;;;;;;4947074;29;20031;-74
2021/12/19 07:29:23;;;;;;;20.05;17.95;;;4.60;99.90;;;;;;4935118;29;20031;-73
2021/12/19 07:31:50;;;;;;;17.65;15.98;;;4.60;99.90;;;;;;4934407;29;20040;-74
2021/12/19 07:34:16;;;;;;;16.25;14.95;;;4.70;99.90;;;;;;4935568;29;20034;-73
2021/12/19 07:36:49;;;;;;;16.55;15.00;;;4.60;99.90;;;;;;4933845;29;20039;-73
2021/12/19 07:42:05;;;;;;;18.60;16.40;;;4.60;99.90;;;;;;4934746;29;20040;-73
2021/12/19 07:44:32;;;;;;;17.25;15.30;;;4.70;99.90;;;;;;4937795;29;20039;-73
2021/12/19 07:46:58;;;;;;;16.33;14.90;;;4.60;99.90;;;;;;4937900;29;20035;-74
2021/12/19 07:49:24;;;;;;;18.10;16.40;;;4.60;99.90;;;;;;4937687;29;20056;-74
2021/12/19 07:51:51;;;;;;;17.67;15.88;;;4.70;99.90;;;;;;4937818;29;20040;-74
2021/12/19 07:54:17;;;;;;;17.92;16.27;;;4.70;99.90;;;;;;4938419;29;20027;-74
2021/12/19 07:56:43;;;;;;;21.63;19.70;;;4.70;99.90;;;;;;4937822;29;20043;-74
2021/12/19 07:59:10;;;;;;;19.42;17.20;;;4.70;99.90;;;;;;4937589;29;20028;-74
2021/12/19 08:01:36;;;;;;;19.27;17.27;;;4.70;99.90;;;;;;4928242;29;20063;-74
2021/12/19 08:04:02;;;;;;;18.58;17.05;;;4.70;99.90;;;;;;4937494;29;20032;-73
2021/12/19 08:06:28;;;;;;;19.52;17.58;;;4.70;99.90;;;;;;4937441;29;20035;-72
2021/12/19 08:08:57;;;;;;;20.02;18.02;;;4.80;99.90;;;;;;4937763;29;20055;-73
2021/12/19 08:11:39;;;;;;;19.48;17.67;;;4.80;99.90;;;;;;4937870;29;20062;-73
2021/12/19 08:14:14;;;;;;;19.38;17.58;;;4.80;99.90;;;;;;4937714;29;20040;-74
2021/12/19 08:16:43;;;;;;;18.75;16.85;;;4.80;99.90;;;;;;4937181;29;20035;-73
2021/12/19 08:19:10;;;;;;;20.25;18.13;;;4.90;99.90;;;;;;4947530;29;20048;-73
2021/12/19 08:21:37;;;;;;;20.33;18.45;;;4.90;99.90;;;;;;4940063;29;20059;-72
2021/12/19 08:24:09;;;;;;;20.13;18.35;;;4.90;99.90;;;;;;4937193;29;20036;-73
2021/12/19 08:26:36;;;;;;;17.50;15.90;;;4.90;99.90;;;;;;4937686;29;20047;-73
2021/12/19 08:29:03;;;;;;;19.95;18.05;;;5.00;99.90;;;;;;4937654;29;20031;-73
2021/12/19 08:31:29;;;;;;;18.33;16.63;;;5.00;99.90;;;;;;4938013;29;20034;-73
2021/12/19 08:33:56;;;;;;;18.02;16.33;;;5.00;99.90;;;;;;4936330;29;20491;-72
2021/12/19 08:36:22;;;;;;;17.08;15.40;;;5.10;99.90;;;;;;4939134;29;20043;-72
2021/12/19 08:38:48;;;;;;;19.05;17.00;;;5.10;99.90;;;;;;4936319;29;20040;-72
2021/12/19 08:41:15;;;;;;;19.50;17.52;;;5.10;99.90;;;;;;4937103;29;20038;-73
2021/12/19 08:43:41;;;;;;;17.73;15.95;;;5.10;99.90;;;;;;4949386;28;20039;-72
2021/12/19 08:46:09;;;;;;;18.35;16.60;;;5.20;99.90;;;;;;4958531;28;20047;-73
2021/12/19 08:48:35;;;;;;;20.38;18.27;;;5.20;99.90;;;;;;4956572;28;20050;-72
2021/12/19 08:51:02;;;;;;;17.85;16.13;;;5.20;99.90;;;;;;4959968;28;20058;-72
2021/12/19 08:53:29;;;;;;;18.10;16.17;;;5.20;99.90;;;;;;4946665;29;20046;-73
2021/12/19 08:55:55;;;;;;;16.10;14.70;;;5.10;99.90;;;;;;4936459;29;20039;-73
2021/12/19 08:58:21;;;;;;;20.92;17.20;;;5.10;99.90;;;;;;4936967;29;20036;-72
2021/12/19 09:00:47;;;;;;;18.92;16.95;;;5.10;99.90;;;;;;4936392;29;20039;-73
2021/12/19 09:03:14;;;;;;;20.38;17.50;;;5.10;99.90;;;;;;4937287;29;20031;-72
2021/12/19 09:05:40;;;;;;;27.73;18.58;;;5.00;99.90;;;;;;4936472;29;20410;-73
2021/12/19 09:08:07;;;;;;;24.58;18.75;;;5.10;99.90;;;;;;4936944;29;20032;-73
2021/12/19 09:10:33;;;;;;;25.40;20.15;;;5.00;99.90;;;;;;4937599;29;20039;-74
2021/12/19 09:13:00;;;;;;;27.13;23.00;;;5.10;99.90;;;;;;4942428;29;20393;-73
2021/12/19 09:15:26;;;;;;;30.40;23.20;;;5.00;99.90;;;;;;4950446;29;20107;-72
2021/12/19 09:17:52;;;;;;;26.00;22.13;;;5.00;99.90;;;;;;4936258;29;20038;-72
2021/12/19 09:20:18;;;;;;;25.92;22.60;;;5.00;99.90;;;;;;4937008;29;20346;-73
2021/12/19 09:22:45;;;;;;;28.10;24.10;;;5.00;99.90;;;;;;4935685;29;20116;-72
2021/12/19 09:25:11;;;;;;;32.03;24.85;;;5.10;99.90;;;;;;4937351;29;20523;-73
2021/12/19 09:27:37;;;;;;;27.52;24.73;;;5.20;99.90;;;;;;4951953;29;20373;-72
2021/12/19 09:30:04;;;;;;;24.92;22.40;;;5.20;99.90;;;;;;4935421;29;20047;-74
2021/12/19 09:32:31;;;;;;;23.75;21.35;;;5.30;99.90;;;;;;4950991;29;20040;-73
2021/12/19 09:34:57;;;;;;;23.05;20.27;;;5.30;99.90;;;;;;4935839;29;20043;-73
2021/12/19 09:37:23;;;;;;;35.92;30.40;;;5.30;99.90;;;;;;4936103;29;20035;-73
2021/12/19 09:39:51;;;;;;;23.52;21.17;;;5.50;99.90;;;;;;4951603;29;20043;-72
2021/12/19 09:42:20;;;;;;;33.55;29.80;;;5.50;99.90;;;;;;4935933;29;20035;-73
2021/12/19 09:44:47;;;;;;;31.13;27.60;;;5.50;99.90;;;;;;4936009;29;20493;-73
2021/12/19 09:47:13;;;;;;;17.42;15.82;;;5.60;99.90;;;;;;4936569;29;20035;-73
2021/12/19 09:49:39;;;;;;;19.48;17.58;;;5.60;99.90;;;;;;4935704;29;20048;-77
2021/12/19 09:52:10;;;;;;;17.98;16.20;;;5.60;99.90;;;;;;4935921;29;20039;-73
2021/12/19 09:54:39;;;;;;;26.40;24.08;;;5.70;99.90;;;;;;4934921;29;20047;-75
2021/12/19 09:57:06;;;;;;;19.17;17.33;;;5.70;99.90;;;;;;4953602;29;20039;-73
2021/12/19 09:59:32;;;;;;;17.85;16.08;;;5.70;99.90;;;;;;4951722;29;20027;-73
2021/12/19 10:01:59;;;;;;;19.20;16.00;;;5.80;99.90;;;;;;4935273;29;20036;-73
2021/12/19 10:04:28;;;;;;;17.58;15.98;;;5.80;99.90;;;;;;4935317;29;20461;-73
2021/12/19 10:07:04;;;;;;;16.83;15.10;;;5.80;99.90;;;;;;4934410;29;20036;-73
2021/12/19 10:09:31;;;;;;;17.63;15.07;;;5.70;99.90;;;;;;4935355;29;20051;-73
2021/12/19 10:12:11;;;;;;;15.13;13.55;;;5.70;99.90;;;;;;4935669;29;20038;-72
2021/12/19 10:14:38;;;;;;;18.73;16.92;;;5.70;99.90;;;;;;4935362;29;20042;-74
2021/12/19 10:17:16;;;;;;;16.10;14.60;;;5.80;99.90;;;;;;4934738;29;20035;-74
2021/12/19 10:19:49;;;;;;;16.40;15.02;;;5.80;99.90;;;;;;4934583;29;20477;-74
2021/12/19 10:22:27;;;;;;;17.10;15.50;;;5.80;99.90;;;;;;4936077;29;20504;-73
2021/12/19 10:25:09;;;;;;;15.75;14.25;;;5.80;99.90;;;;;;4934989;29;20043;-73
2021/12/19 10:27:38;;;;;;;18.10;16.15;;;5.80;99.90;;;;;;4935231;29;20036;-74
2021/12/19 10:30:12;;;;;;;21.73;19.52;;;5.80;99.90;;;;;;4934541;29;20043;-74
2021/12/19 10:32:57;;;;;;;20.45;18.40;;;5.80;99.90;;;;;;4934851;29;20052;-74
2021/12/19 10:35:28;;;;;;;22.85;17.27;;;5.80;99.90;;;;;;4936044;29;20042;-74
2021/12/19 10:37:56;;;;;;;16.98;15.20;;;5.80;99.90;;;;;;4934860;29;20038;-75
2021/12/19 10:40:22;;;;;;;19.83;16.67;;;5.80;99.90;;;;;;4934980;29;20504;-75
2021/12/19 10:42:59;;;;;;;17.20;15.25;;;5.80;99.90;;;;;;4919172;29;20040;-75
2021/12/19 10:45:49;;;;;;;19.00;15.07;;;5.80;99.90;;;;;;4935261;29;20042;-75
2021/12/19 10:48:27;;;;;;;18.00;16.23;;;5.90;99.90;;;;;;4935371;29;20052;-75
2021/12/19 10:50:58;;;;;;;18.27;16.73;;;5.90;99.90;;;;;;4935393;29;20051;-75
2021/12/19 10:53:55;;;;;;;22.90;18.65;;;5.90;99.90;;;;;;4934701;29;20055;-74
2021/12/19 10:56:24;;;;;;;32.00;28.75;;;6.00;99.90;;;;;;4934136;29;20040;-75
2021/12/19 10:58:55;;;;;;;52.55;39.92;;;5.90;99.90;;;;;;4934879;29;20036;-74
2021/12/19 11:01:31;;;;;;;63.88;48.80;;;5.90;99.90;;;;;;4935386;29;20039;-73
2021/12/19 11:04:09;;;;;;;52.42;41.78;;;6.00;99.90;;;;;;4934741;29;20036;-74
2021/12/19 11:06:42;;;;;;;82.35;60.85;;;6.00;99.90;;;;;;4935297;29;20032;-74
2021/12/19 11:09:11;;;;;;;103.32;81.18;;;6.00;99.90;;;;;;4935038;29;20042;-73
2021/12/19 11:11:48;;;;;;;55.63;44.65;;;6.00;99.90;;;;;;4935473;29;20036;-73
2021/12/19 11:14:18;;;;;;;22.85;20.50;;;5.90;99.90;;;;;;4935099;29;20031;-73
2021/12/19 11:16:45;;;;;;;17.60;15.65;;;6.00;99.90;;;;;;4935010;29;20036;-74
2021/12/19 11:19:12;;;;;;;14.68;13.18;;;6.00;99.90;;;;;;4937539;29;20040;-73
2021/12/19 11:21:39;;;;;;;20.40;18.40;;;5.90;99.90;;;;;;4938578;29;20063;-73
2021/12/19 11:24:11;;;;;;;16.63;14.80;;;5.90;99.90;;;;;;4938194;29;20027;-73
2021/12/19 11:26:39;;;;;;;19.20;17.05;;;5.90;99.90;;;;;;4957740;29;20046;-73
2021/12/19 11:29:08;;;;;;;44.20;29.90;;;5.90;99.90;;;;;;4939750;29;20032;-75
2021/12/19 11:31:35;;;;;;;23.67;18.52;;;6.00;99.90;;;;;;4939252;29;20031;-74
2021/12/19 11:34:04;;;;;;;27.80;23.35;;;6.10;99.90;;;;;;4938020;29;20117;-73
2021/12/19 11:36:36;;;;;;;20.65;18.48;;;6.10;99.90;;;;;;4938770;29;20057;-73
2021/12/19 11:39:04;;;;;;;20.60;18.00;;;6.10;99.90;;;;;;4937886;29;20044;-73
2021/12/19 11:41:34;;;;;;;29.63;18.02;;;6.10;99.90;;;;;;4938268;29;20043;-73
2021/12/19 11:44:04;;;;;;;14.85;13.40;;;6.00;99.90;;;;;;4950782;29;20393;-74
2021/12/19 11:46:46;;;;;;;20.75;13.13;;;6.00;99.90;;;;;;4925670;29;20042;-74
2021/12/19 11:49:19;;;;;;;16.20;14.52;;;6.00;99.90;;;;;;4937942;29;20374;-72
2021/12/19 11:51:47;;;;;;;17.10;15.35;;;6.00;99.90;;;;;;4936635;29;20508;-73
2021/12/19 11:54:16;;;;;;;18.33;13.90;;;6.00;99.90;;;;;;4921039;29;20038;-71
2021/12/19 11:57:06;;;;;;;16.98;12.50;;;6.00;99.90;;;;;;4937797;29;20038;-72
2021/12/19 11:59:32;;;;;;;14.00;12.38;;;5.90;99.90;;;;;;4937955;29;20046;-71
2021/12/19 12:02:25;;;;;;;14.68;12.95;;;6.00;99.90;;;;;;4937677;29;20047;-73
2021/12/19 12:05:13;;;;;;;14.85;13.32;;;6.10;99.90;;;;;;4937086;29;20035;-73
2021/12/19 12:08:04;;;;;;;16.23;13.05;;;6.10;99.90;;;;;;4937907;29;20034;-72
2021/12/19 12:10:53;;;;;;;14.48;13.18;;;6.10;99.90;;;;;;4937160;29;20043;-73
2021/12/19 12:13:29;;;;;;;14.05;12.68;;;6.10;99.90;;;;;;4938066;29;20039;-74
2021/12/19 12:19:08;;;;;;;14.88;12.50;;;6.10;99.90;;;;;;4934578;29;20052;-75
2021/12/19 12:21:42;;;;;;;18.45;12.38;;;6.10;99.90;;;;;;4937712;29;20165;-74
2021/12/19 12:24:11;;;;;;;15.02;13.27;;;6.10;99.90;;;;;;4937534;29;20040;-74
2021/12/19 12:26:51;;;;;;;13.80;12.40;;;6.10;99.90;;;;;;4937318;29;20035;-73
2021/12/19 12:29:17;;;;;;;15.05;12.07;;;6.10;99.90;;;;;;4936467;29;20412;-73
2021/12/19 12:31:46;;;;;;;14.07;12.38;;;6.10;99.90;;;;;;4937783;29;20048;-76
2021/12/19 12:34:14;;;;;;;13.75;12.35;;;6.00;99.90;;;;;;4937460;29;20058;-74
2021/12/19 12:36:41;;;;;;;13.05;11.75;;;6.10;99.90;;;;;;4937389;29;20028;-73
2021/12/19 12:39:16;;;;;;;14.25;12.95;;;6.20;99.90;;;;;;4936583;29;20047;-74
2021/12/19 12:44:21;;;;;;;17.02;13.82;;;6.30;99.90;;;;;;4937119;29;20036;-73
2021/12/19 12:46:48;;;;;;;23.88;15.20;;;6.30;99.90;;;;;;4936352;29;20496;-73
2021/12/19 12:49:19;;;;;;;17.63;15.70;;;6.30;99.90;;;;;;4936647;29;20051;-73
2021/12/19 12:51:47;;;;;;;;;;;6.30;99.90;;;;;;4937019;29;20032;-73
2021/12/19 12:54:24;;;;;;;13.85;12.20;;;6.20;99.90;;;;;;4941397;29;20285;-72
2021/12/19 12:56:56;;;;;;;15.15;11.95;;;6.20;99.90;;;;;;4923145;29;20047;-72
2021/12/19 12:59:24;;;;;;;11.50;10.43;;;6.20;99.90;;;;;;4937386;29;20039;-74
2021/12/19 13:02:14;;;;;;;13.07;11.75;;;6.10;99.90;;;;;;4936569;29;20437;-73
2021/12/19 13:04:46;;;;;;;11.25;10.10;;;6.10;99.90;;;;;;4937150;29;20054;-73
2021/12/19 13:07:19;;;;;;;16.45;11.38;;;6.10;99.90;;;;;;4936228;29;20469;-73
2021/12/19 13:09:46;;;;;;;13.35;11.25;;;6.00;99.90;;;;;;4936379;29;20039;-74
2021/12/19 13:12:16;;;;;;;17.45;15.50;;;6.00;99.90;;;;;;4936349;29;20052;-74
2021/12/19 13:14:47;;;;;;;11.18;10.18;;;5.90;99.90;;;;;;4936531;29;20397;-74
2021/12/19 13:17:17;;;;;;;15.38;10.43;;;5.90;99.90;;;;;;4936372;29;20040;-73
2021/12/19 13:19:47;;;;;;;14.32;9.98;;;5.90;99.90;;;;;;4935822;29;20036;-73
2021/12/19 13:22:20;;;;;;;12.70;11.40;;;5.90;99.90;;;;;;4935756;29;20058;-73
2021/12/19 13:24:47;;;;;;;16.77;11.70;;;6.00;99.90;;;;;;4926394;29;20055;-73
2021/12/19 13:27:26;;;;;;;11.57;10.00;;;6.00;99.90;;;;;;4938032;29;20043;-73
2021/12/19 13:30:06;;;;;;;13.38;10.30;;;6.00;99.90;;;;;;4944826;29;20043;-74
2021/12/19 13:32:34;;;;;;;14.95;10.73;;;5.90;99.90;;;;;;4940791;29;20038;-74
2021/12/19 13:35:11;;;;;;;15.43;10.57;;;6.00;99.90;;;;;;4945008;29;20482;-73
2021/12/19 13:37:56;;;;;;;12.60;10.35;;;6.10;99.90;;;;;;4949242;29;20038;-73
2021/12/19 13:40:25;;;;;;;11.77;10.38;;;6.10;99.90;;;;;;4935630;28;20028;-73
2021/12/19 13:42:55;;;;;;;11.95;10.77;;;6.10;99.90;;;;;;4934999;29;20411;-73
2021/12/19 13:45:30;;;;;;;15.88;14.18;;;6.10;99.90;;;;;;4942929;29;20043;-73
2021/12/19 13:47:59;;;;;;;13.77;9.88;;;6.10;99.90;;;;;;4935630;29;20039;-74
2021/12/19 13:50:30;;;;;;;13.10;11.70;;;6.10;99.90;;;;;;4935906;29;20055;-73
2021/12/19 13:52:57;;;;;;;16.40;10.93;;;6.10;99.90;;;;;;4935348;29;20055;-73
2021/12/19 13:55:23;;;;;;;17.35;11.63;;;6.10;99.90;;;;;;4935601;29;20039;-73
2021/12/19 13:58:04;;;;;;;13.88;11.80;;;6.10;99.90;;;;;;4935785;29;20366;-73
2021/12/19 14:00:34;;;;;;;13.95;11.93;;;6.00;99.90;;;;;;4926836;29;20030;-74